createdAt,value
2022-08-11T00:01:18.345Z,99494.94
2022-08-11T00:03:51.875Z,99490.75
2022-08-11T00:06:26.987Z,99490.38
2022-08-11T00:08:57.806Z,99497.56
2022-08-11T00:11:35.228Z,99494.16
2022-08-11T00:14:19.784Z,99496.66
2022-08-11T00:16:59.736Z,99492.22
2022-08-11T00:20:11.914Z,99492.06
2022-08-11T00:22:24.728Z,99495.28
2022-08-11T00:25:00.013Z,99498.50
2022-08-11T00:27:36.399Z,99495.81
2022-08-11T00:30:07.175Z,99497.34
2022-08-11T00:32:40.259Z,99497.69
2022-08-11T00:35:55.335Z,99496.81
2022-08-11T00:38:04.940Z,99499.06
2022-08-11T00:40:40.650Z,99488.56
2022-08-11T00:43:21.761Z,99487.53
2022-08-11T00:46:12.564Z,99488.00
2022-08-11T00:48:58.373Z,99489.78
2022-08-11T00:52:04.236Z,99496.25
2022-08-11T00:55:07.453Z,99495.81
2022-08-11T00:58:11.903Z,99492.75
2022-08-11T01:01:06.692Z,99495.91
2022-08-11T01:04:01.003Z,99492.91
2022-08-11T01:06:53.768Z,99497.63
2022-08-11T01:09:49.012Z,99498.56
2022-08-11T01:12:44.305Z,99499.00
2022-08-11T01:16:00.466Z,99499.63
2022-08-11T01:19:09.199Z,99492.13
2022-08-11T01:22:11.754Z,99494.84
2022-08-11T01:25:15.215Z,99492.34
2022-08-11T01:28:33.403Z,99495.56
2022-08-11T01:31:27.609Z,99496.56
2022-08-11T01:34:30.819Z,99506.66
2022-08-11T01:37:42.161Z,99499.50
2022-08-11T01:40:36.147Z,99504.34
2022-08-11T01:43:58.371Z,99495.97
2022-08-11T01:46:32.393Z,99502.63
2022-08-11T01:50:05.200Z,99497.03
2022-08-11T01:52:10.081Z,99498.69
2022-08-11T01:54:49.068Z,99495.34
2022-08-11T01:57:35.276Z,99490.50
2022-08-11T02:00:12.730Z,99496.72
2022-08-11T02:02:55.036Z,99494.63
2022-08-11T02:05:43.907Z,99491.91
2022-08-11T02:08:33.271Z,99489.19
2022-08-11T02:11:35.703Z,99489.19
2022-08-11T02:14:25.858Z,99494.84
2022-08-11T02:17:15.425Z,99491.28
2022-08-11T02:20:24.713Z,99488.28
2022-08-11T02:24:03.815Z,99487.69
2022-08-11T02:26:19.630Z,99484.75
2022-08-11T02:29:01.820Z,99474.66
2022-08-11T02:32:24.343Z,99481.00
2022-08-11T02:35:19.083Z,99474.66
2022-08-11T02:38:00.092Z,99475.94
2022-08-11T02:40:37.644Z,99472.56
2022-08-11T02:43:20.391Z,99467.19
2022-08-11T02:45:57.909Z,99484.50
2022-08-11T02:49:00.517Z,99487.84
2022-08-11T02:51:41.680Z,99448.63
2022-08-11T02:54:22.076Z,99495.66
2022-08-11T02:56:58.728Z,99495.41
2022-08-11T02:59:51.482Z,99501.44
2022-08-11T03:02:47.311Z,99496.03
2022-08-11T03:05:26.991Z,99489.75
2022-08-11T03:08:25.192Z,99490.56
2022-08-11T03:11:30.728Z,99498.56
2022-08-11T03:14:35.515Z,99499.50
2022-08-11T03:17:17.777Z,99498.88
2022-08-11T03:20:01.265Z,99492.34
2022-08-11T03:22:38.105Z,99490.06
2022-08-11T03:25:16.604Z,99500.72
2022-08-11T03:27:53.694Z,99506.22
2022-08-11T03:30:31.493Z,99497.78
2022-08-11T03:33:36.896Z,99506.16
2022-08-11T03:36:17.203Z,99501.97
2022-08-11T03:39:00.042Z,99487.78
2022-08-11T03:42:03.368Z,99511.38
2022-08-11T03:44:49.507Z,99506.53
2022-08-11T03:47:52.578Z,99500.25
2022-08-11T03:50:44.249Z,99513.22
2022-08-11T03:53:20.210Z,99512.78
2022-08-11T03:56:24.181Z,99517.38
2022-08-11T03:59:17.676Z,99516.97
2022-08-11T04:02:22.152Z,99519.53
2022-08-11T04:05:00.606Z,99521.84
2022-08-11T04:08:13.228Z,99531.81
2022-08-11T04:11:16.991Z,99532.41
2022-08-11T04:14:48.944Z,99530.31
2022-08-11T04:18:00.690Z,99530.28
2022-08-11T04:20:53.829Z,99537.91
2022-08-11T04:24:36.438Z,99541.00
2022-08-11T04:27:21.285Z,99536.66
2022-08-11T04:30:05.745Z,99534.91
2022-08-11T04:33:34.432Z,99546.72
2022-08-11T04:36:49.587Z,99550.41
2022-08-11T04:39:35.260Z,99548.09
2022-08-11T04:42:48.703Z,99557.03
2022-08-11T04:45:53.123Z,99553.28
2022-08-11T04:49:01.111Z,99559.59
2022-08-11T04:52:37.540Z,99552.00
2022-08-11T04:56:00.666Z,99550.19
2022-08-11T04:59:07.500Z,99561.00
2022-08-11T05:02:17.013Z,99554.53
2022-08-11T05:05:16.362Z,99554.31
2022-08-11T05:08:23.863Z,99563.16
2022-08-11T05:11:08.679Z,99554.13
2022-08-11T05:14:04.829Z,99563.31
2022-08-11T05:17:01.109Z,99554.91
2022-08-11T05:19:48.972Z,99570.88
2022-08-11T05:22:38.837Z,99564.44
2022-08-11T05:26:46.878Z,99568.19
2022-08-11T05:28:48.933Z,99558.78
2022-08-11T05:31:52.167Z,99567.19
2022-08-11T05:34:44.036Z,99562.56
2022-08-11T05:37:28.282Z,99563.63
2022-08-11T05:40:20.149Z,99567.16
2022-08-11T05:43:09.472Z,99568.56
2022-08-11T05:46:04.055Z,99570.84
2022-08-11T05:48:55.527Z,99569.66
2022-08-11T05:51:55.318Z,99558.41
2022-08-11T05:54:46.012Z,99558.44
2022-08-11T05:57:48.807Z,99554.03
2022-08-11T06:00:13.314Z,99549.59
2022-08-11T06:02:45.554Z,99554.84
2022-08-11T06:05:19.480Z,99536.59
2022-08-11T06:07:50.989Z,99554.03
2022-08-11T06:10:29.702Z,99556.97
2022-08-11T06:13:02.003Z,99544.69
2022-08-11T06:15:36.144Z,99547.50
2022-08-11T06:18:06.471Z,99554.91
2022-08-11T06:20:48.291Z,99543.16
2022-08-11T06:23:23.292Z,99556.06
2022-08-11T06:25:56.333Z,99559.03
2022-08-11T06:28:32.673Z,99544.94
2022-08-11T06:31:04.771Z,99556.84
2022-08-11T06:33:44.032Z,99541.47
2022-08-11T06:36:18.329Z,99554.88
2022-08-11T06:39:02.409Z,99554.41
2022-08-11T06:41:35.544Z,99554.13
2022-08-11T06:44:17.255Z,99545.84
2022-08-11T06:46:50.988Z,99544.38
2022-08-11T06:49:39.588Z,99549.09
2022-08-11T06:52:35.223Z,99552.84
2022-08-11T06:55:57.917Z,99528.16
2022-08-11T06:58:20.793Z,99546.44
2022-08-11T07:00:58.400Z,99543.81
2022-08-11T07:03:38.253Z,99544.66
2022-08-11T07:06:23.316Z,99543.56
2022-08-11T07:09:53.214Z,99539.69
2022-08-11T07:12:58.697Z,99535.44
2022-08-11T07:16:11.203Z,99534.75
2022-08-11T07:18:55.131Z,99526.88
2022-08-11T07:22:02.821Z,99536.34
2022-08-11T07:24:58.776Z,99543.31
2022-08-11T07:28:02.431Z,99547.50
2022-08-11T07:30:36.024Z,99535.03
2022-08-11T07:33:08.542Z,99541.06
2022-08-11T07:35:43.910Z,99542.28
2022-08-11T07:38:22.853Z,99537.41
2022-08-11T07:41:00.246Z,99546.91
2022-08-11T07:43:30.373Z,99541.16
2022-08-11T07:46:18.302Z,99544.84
2022-08-11T07:49:05.465Z,99542.31
2022-08-11T07:51:56.947Z,99548.00
2022-08-11T07:54:28.080Z,99543.50
2022-08-11T07:57:58.494Z,99547.69
2022-08-11T08:00:32.037Z,99537.84
2022-08-11T08:03:22.819Z,99539.75
2022-08-11T08:06:28.671Z,99542.50
2022-08-11T08:09:19.899Z,99537.38
2022-08-11T08:12:08.217Z,99542.84
2022-08-11T08:14:57.652Z,99536.28
2022-08-11T08:18:20.826Z,99528.44
2022-08-11T08:20:39.960Z,99528.78
2022-08-11T08:23:11.027Z,99529.38
2022-08-11T08:25:42.427Z,99496.59
2022-08-11T08:28:15.999Z,99531.50
2022-08-11T08:30:51.012Z,99528.75
2022-08-11T08:33:23.421Z,99519.22
2022-08-11T08:36:11.907Z,99523.97
2022-08-11T08:38:43.221Z,99526.56
2022-08-11T08:41:16.415Z,99522.13
2022-08-11T08:43:51.945Z,99519.63
2022-08-11T08:46:37.968Z,99510.63
2022-08-11T08:49:11.110Z,99525.03
2022-08-11T08:51:58.759Z,99509.41
2022-08-11T08:54:37.133Z,99497.03
2022-08-11T08:57:09.208Z,99507.34
2022-08-11T08:59:49.091Z,99461.81
2022-08-11T09:02:33.912Z,99480.34
2022-08-11T09:05:06.272Z,99497.75
2022-08-11T09:07:39.333Z,99496.69
2022-08-11T09:10:11.011Z,99484.41
2022-08-11T09:12:43.474Z,99482.63
2022-08-11T09:15:19.677Z,99484.81
2022-08-11T09:18:03.778Z,99490.19
2022-08-11T09:20:36.402Z,99492.50
2022-08-11T09:26:34.323Z,99478.59
2022-08-11T09:29:05.800Z,99476.41
2022-08-11T09:31:39.594Z,99483.06
2022-08-11T09:34:15.153Z,99447.06
2022-08-11T09:37:03.846Z,99481.13
2022-08-11T09:39:55.706Z,99472.56
2022-08-11T09:42:47.481Z,99471.06
2022-08-11T09:45:17.432Z,99466.78
2022-08-11T09:47:48.272Z,99456.47
2022-08-11T09:50:20.169Z,99463.84
2022-08-11T09:53:35.212Z,99459.50
2022-08-11T09:55:43.124Z,99458.84
2022-08-11T09:58:35.166Z,99451.94
2022-08-11T10:01:08.024Z,99446.97
2022-08-11T10:03:42.678Z,99450.28
2022-08-11T10:06:34.412Z,99441.34
2022-08-11T10:09:07.384Z,99444.53
2022-08-11T10:11:38.731Z,99441.72
2022-08-11T10:14:34.620Z,99446.31
2022-08-11T10:17:09.162Z,99440.97
2022-08-11T10:19:40.274Z,99435.47
2022-08-11T10:22:29.241Z,99446.78
2022-08-11T10:25:21.344Z,99439.75
2022-08-11T10:28:28.530Z,99435.78
2022-08-11T10:31:06.716Z,99443.75
2022-08-11T10:33:59.790Z,99424.81
2022-08-11T10:36:31.439Z,99432.41
2022-08-11T10:39:06.286Z,99434.22
2022-08-11T10:42:06.902Z,99420.59
2022-08-11T10:44:42.568Z,99423.06
2022-08-11T10:47:32.084Z,99414.78
2022-08-11T10:50:20.954Z,99415.63
2022-08-11T10:53:09.674Z,99410.13
2022-08-11T10:56:02.153Z,99430.34
2022-08-11T10:58:49.289Z,99416.03
2022-08-11T11:01:24.863Z,99408.38
2022-08-11T11:03:58.996Z,99403.25
2022-08-11T11:06:34.671Z,99401.31
2022-08-11T11:09:09.804Z,99405.53
2022-08-11T11:12:06.397Z,99400.22
2022-08-11T11:14:59.163Z,99398.72
2022-08-11T11:17:49.153Z,99393.41
2022-08-11T11:20:37.220Z,99391.25
2022-08-11T11:23:13.645Z,99390.47
2022-08-11T11:26:10.196Z,99366.72
2022-08-11T11:29:04.281Z,99390.94
2022-08-11T11:31:47.041Z,99390.81
2022-08-11T11:34:33.324Z,99386.53
2022-08-11T11:37:04.979Z,99368.66
2022-08-11T11:39:37.318Z,99377.81
2022-08-11T11:42:10.500Z,99368.16
2022-08-11T11:44:45.804Z,99376.47
2022-08-11T11:47:21.708Z,99379.34
2022-08-11T11:49:53.181Z,99371.94
2022-08-11T11:52:24.781Z,99363.00
2022-08-11T11:54:58.472Z,99366.88
2022-08-11T11:57:58.752Z,99353.41
2022-08-11T12:00:48.742Z,99347.31
2022-08-11T12:03:21.024Z,99349.34
2022-08-11T12:05:52.839Z,99350.38
2022-08-11T12:08:27.766Z,99354.25
2022-08-11T12:11:15.697Z,99342.47
2022-08-11T12:13:50.268Z,99339.22
2022-08-11T12:16:34.295Z,99343.09
2022-08-11T12:19:10.442Z,99339.47
2022-08-11T12:22:03.089Z,99349.44
2022-08-11T12:27:59.087Z,99334.34
2022-08-11T12:30:29.327Z,99329.44
2022-08-11T12:33:00.850Z,99328.31
2022-08-11T12:35:31.624Z,99338.50
2022-08-11T12:38:08.002Z,99332.84
2022-08-11T12:44:06.968Z,99322.25
2022-08-11T12:46:38.836Z,99322.53
2022-08-11T12:49:31.080Z,99319.03
2022-08-11T12:52:15.023Z,99315.91
2022-08-11T12:54:52.803Z,99316.09
2022-08-11T12:57:47.609Z,99310.03
2022-08-11T13:00:36.886Z,99294.31
2022-08-11T13:03:27.210Z,99317.00
2022-08-11T13:06:00.915Z,99317.59
2022-08-11T13:08:35.551Z,99310.44
2022-08-11T13:11:23.866Z,99313.72
2022-08-11T13:13:57.923Z,99317.31
2022-08-11T13:16:31.836Z,99310.75
2022-08-11T13:19:02.997Z,99315.38
2022-08-11T13:21:34.536Z,99315.03
2022-08-11T13:24:05.294Z,99311.41
2022-08-11T13:26:48.737Z,99304.34
2022-08-11T13:29:22.834Z,99288.72
2022-08-11T13:31:55.032Z,99306.34
2022-08-11T13:34:27.375Z,99303.56
2022-08-11T13:37:02.321Z,99293.72
2022-08-11T13:39:34.833Z,99299.75
2022-08-11T13:42:06.948Z,99280.56
2022-08-11T13:44:39.563Z,99294.63
2022-08-11T13:47:13.199Z,99293.53
2022-08-11T13:49:45.043Z,99290.56
2022-08-11T13:52:17.722Z,99302.59
2022-08-11T13:54:49.345Z,99289.31
2022-08-11T13:58:06.375Z,99293.72
2022-08-11T14:00:13.147Z,99296.78
2022-08-11T14:02:58.863Z,99292.09
2022-08-11T14:05:32.743Z,99286.56
2022-08-11T14:08:09.795Z,99286.91
2022-08-11T14:12:21.589Z,99284.94
2022-08-11T14:14:14.842Z,99286.75
2022-08-11T14:16:46.769Z,99287.56
2022-08-11T14:19:18.555Z,99285.53
2022-08-11T14:22:08.708Z,99286.06
2022-08-11T14:24:42.649Z,99245.78
2022-08-11T14:28:32.556Z,99282.94
2022-08-11T14:30:26.635Z,99294.53
2022-08-11T14:32:59.827Z,99292.09
2022-08-11T14:35:30.243Z,99292.72
2022-08-11T14:38:01.635Z,99288.63
2022-08-11T14:40:54.474Z,99284.03
2022-08-11T14:44:10.441Z,99282.88
2022-08-11T14:47:02.992Z,99285.38
2022-08-11T14:49:34.914Z,99285.06
2022-08-11T14:52:08.548Z,99285.63
2022-08-11T14:54:56.178Z,99283.13
2022-08-11T14:57:54.305Z,99280.34
2022-08-11T15:00:19.233Z,99290.22
2022-08-11T15:03:10.457Z,99289.69
2022-08-11T15:05:56.134Z,99285.16
2022-08-11T15:08:47.656Z,99292.59
2022-08-11T15:11:37.326Z,99289.84
2022-08-11T15:14:11.078Z,99293.13
2022-08-11T15:17:01.039Z,99302.75
2022-08-11T15:19:40.583Z,99280.72
2022-08-11T15:22:30.242Z,99292.59
2022-08-11T15:25:01.052Z,99286.78
2022-08-11T15:27:49.850Z,99279.59
2022-08-11T15:30:39.798Z,99284.81
2022-08-11T15:33:30.181Z,99282.31
2022-08-11T15:36:21.750Z,99285.59
2022-08-11T15:38:56.489Z,99279.84
2022-08-11T15:42:07.207Z,99282.31
2022-08-11T15:45:04.088Z,99280.06
2022-08-11T15:47:43.735Z,99286.94
2022-08-11T15:50:19.110Z,99289.44
2022-08-11T15:52:54.565Z,99285.00
2022-08-11T15:55:26.490Z,99289.34
2022-08-11T15:58:15.498Z,99299.44
2022-08-11T16:01:09.106Z,99288.03
2022-08-11T16:04:09.072Z,99296.84
2022-08-11T16:06:47.735Z,99295.44
2022-08-11T16:09:23.952Z,99250.38
2022-08-11T16:11:57.712Z,99296.69
2022-08-11T16:14:46.244Z,99293.38
2022-08-11T16:17:19.762Z,99301.25
2022-08-11T16:19:52.828Z,99301.19
2022-08-11T16:22:34.428Z,99300.03
2022-08-11T16:27:02.910Z,99301.91
2022-08-11T16:27:59.599Z,99283.34
2022-08-11T16:30:32.545Z,99296.78
2022-08-11T16:33:49.110Z,99323.72
2022-08-11T16:36:25.287Z,99321.47
2022-08-11T16:38:56.252Z,99324.72
2022-08-11T16:41:47.789Z,99319.16
2022-08-11T16:44:38.309Z,99329.00
2022-08-11T16:47:11.757Z,99332.50
2022-08-11T16:49:52.707Z,99336.91
2022-08-11T16:52:25.728Z,99337.13
2022-08-11T16:54:56.106Z,99336.25
2022-08-11T16:57:45.478Z,99336.53
2022-08-11T17:00:18.686Z,99337.53
2022-08-11T17:03:09.562Z,99346.28
2022-08-11T17:06:00.290Z,99354.16
2022-08-11T17:08:57.397Z,99343.25
2022-08-11T17:11:47.803Z,99357.00
2022-08-11T17:14:35.563Z,99360.75
2022-08-11T17:17:13.309Z,99365.41
2022-08-11T17:20:40.444Z,99368.63
2022-08-11T17:23:00.577Z,99368.81
2022-08-11T17:26:03.610Z,99369.31
2022-08-11T17:28:26.090Z,99368.66
2022-08-11T17:31:29.156Z,99368.28
2022-08-11T17:34:17.519Z,99371.28
2022-08-11T17:36:51.484Z,99381.31
2022-08-11T17:39:24.639Z,99381.25
2022-08-11T17:42:14.169Z,99380.91
2022-08-11T17:45:03.591Z,99377.59
2022-08-11T17:47:52.953Z,99385.22
2022-08-11T17:50:24.494Z,99388.44
2022-08-11T17:53:12.653Z,99387.53
2022-08-11T17:56:01.360Z,99391.63
2022-08-11T17:58:51.058Z,99403.03
2022-08-11T18:01:22.797Z,99396.06
2022-08-11T18:03:58.087Z,99407.94
2022-08-11T18:06:34.709Z,99417.22
2022-08-11T18:09:26.846Z,99411.19
2022-08-11T18:12:15.377Z,99410.34
2022-08-11T18:15:08.254Z,99415.13
2022-08-11T18:17:56.460Z,99396.53
2022-08-11T18:20:44.568Z,99426.09
2022-08-11T18:23:45.997Z,99425.66
2022-08-11T18:26:39.382Z,99431.34
2022-08-11T18:29:28.209Z,99437.56
2022-08-11T18:32:20.751Z,99432.34
2022-08-11T18:35:13.078Z,99441.13
2022-08-11T18:38:05.958Z,99448.50
2022-08-11T18:40:59.163Z,99448.66
2022-08-11T18:43:48.183Z,99448.88
2022-08-11T18:46:37.390Z,99448.06
2022-08-11T18:50:01.006Z,99454.34
2022-08-11T18:52:41.436Z,99455.69
2022-08-11T18:55:32.309Z,99466.63
2022-08-11T18:58:23.630Z,99472.34
2022-08-11T19:01:15.423Z,99471.88
2022-08-11T19:04:10.971Z,99469.72
2022-08-11T19:07:02.721Z,99475.19
2022-08-11T19:09:52.178Z,99479.00
2022-08-11T19:12:43.350Z,99479.38
2022-08-11T19:15:31.891Z,99485.44
2022-08-11T19:18:21.408Z,99485.31
2022-08-11T19:21:11.413Z,99497.69
2022-08-11T19:24:03.186Z,99498.03
2022-08-11T19:26:52.497Z,99490.19
2022-08-11T19:30:08.069Z,99484.03
2022-08-11T19:32:51.545Z,99495.31
2022-08-11T19:35:39.410Z,99491.41
2022-08-11T19:38:27.610Z,99502.34
2022-08-11T19:41:17.919Z,99493.72
2022-08-11T19:44:29.013Z,99498.50
2022-08-11T19:47:18.762Z,99503.03
2022-08-11T19:50:08.337Z,99507.16
2022-08-11T19:52:57.988Z,99500.16
2022-08-11T19:55:46.654Z,99507.41
2022-08-11T19:58:36.395Z,99509.41
2022-08-11T20:01:24.692Z,99512.88
2022-08-11T20:04:12.216Z,99515.13
2022-08-11T20:07:00.417Z,99517.63
2022-08-11T20:10:00.955Z,99517.38
2022-08-11T20:12:56.273Z,99515.13
2022-08-11T20:15:47.004Z,99508.03
2022-08-11T20:18:37.382Z,99518.34
2022-08-11T20:21:31.700Z,99521.44
2022-08-11T20:24:21.774Z,99515.13
2022-08-11T20:27:18.923Z,99499.69
2022-08-11T20:30:12.444Z,99523.22
2022-08-11T20:33:02.731Z,99521.91
2022-08-11T20:35:51.924Z,99513.69
2022-08-11T20:38:41.715Z,99516.19
2022-08-11T20:41:31.127Z,99531.75
2022-08-11T20:44:22.849Z,99539.81
2022-08-11T20:47:13.396Z,99534.59
2022-08-11T20:50:04.565Z,99537.94
2022-08-11T20:52:52.153Z,99541.16
2022-08-11T20:55:46.199Z,99541.63
2022-08-11T20:59:13.810Z,99548.16
2022-08-11T21:01:54.109Z,99557.53
2022-08-11T21:04:54.121Z,99558.03
2022-08-11T21:07:55.191Z,99553.47
2022-08-11T21:10:46.815Z,99537.91
2022-08-11T21:13:36.900Z,99558.81
2022-08-11T21:16:27.722Z,99557.72
2022-08-11T21:20:00.330Z,99561.91
2022-08-11T21:22:36.392Z,99559.66
2022-08-11T21:25:29.975Z,99563.19
2022-08-11T21:28:21.048Z,99566.28
2022-08-11T21:31:08.909Z,99564.72
2022-08-11T21:33:57.544Z,99571.75
2022-08-11T21:36:46.724Z,99564.59
2022-08-11T21:39:38.198Z,99569.38
2022-08-11T21:42:29.200Z,99569.59
2022-08-11T21:45:18.313Z,99578.28
2022-08-11T21:48:07.015Z,99573.50
2022-08-11T21:50:54.270Z,99583.63
2022-08-11T21:53:42.639Z,99578.38
2022-08-11T21:56:32.108Z,99581.31
2022-08-11T21:59:22.326Z,99584.53
2022-08-11T22:02:12.748Z,99586.88
2022-08-11T22:05:01.485Z,99583.16
2022-08-11T22:07:49.962Z,99582.41
2022-08-11T22:10:42.213Z,99569.94
2022-08-11T22:13:31.509Z,99558.16
2022-08-11T22:16:21.011Z,99579.25
2022-08-11T22:19:09.847Z,99584.13
2022-08-11T22:22:04.253Z,99577.22
2022-08-11T22:24:56.032Z,99576.28
2022-08-11T22:27:44.839Z,99589.13
2022-08-11T22:30:32.678Z,99590.81
2022-08-11T22:33:26.985Z,99597.53
2022-08-11T22:36:17.298Z,99589.66
2022-08-11T22:39:05.989Z,99592.78
2022-08-11T22:41:54.009Z,99595.03
2022-08-11T22:44:41.396Z,99590.34
2022-08-11T22:47:40.358Z,99589.41
2022-08-11T22:50:31.096Z,99591.91
2022-08-11T22:53:20.299Z,99588.41
2022-08-11T22:56:32.071Z,99584.84
2022-08-11T22:59:20.769Z,99579.53
2022-08-11T23:02:09.148Z,99575.91
2022-08-11T23:04:57.483Z,99577.59
2022-08-11T23:07:50.903Z,99577.22
2022-08-11T23:10:41.599Z,99568.13
2022-08-11T23:13:29.809Z,99571.03
2022-08-11T23:16:19.635Z,99579.53
2022-08-11T23:19:07.939Z,99573.88
2022-08-11T23:21:56.263Z,99568.41
2022-08-11T23:24:45.007Z,99572.81
2022-08-11T23:27:33.287Z,99569.03
2022-08-11T23:30:20.632Z,99568.19
2022-08-11T23:33:15.716Z,99571.69
2022-08-11T23:36:08.347Z,99575.78
2022-08-11T23:38:56.167Z,99576.22
2022-08-11T23:41:44.989Z,99568.94
2022-08-11T23:44:32.224Z,99512.84
2022-08-11T23:47:21.507Z,99564.16
2022-08-11T23:50:09.777Z,99550.59
2022-08-11T23:52:56.976Z,99559.31
2022-08-11T23:55:44.783Z,99557.72
2022-08-11T23:58:34.201Z,99557.53
